createdAt,value
2018-08-18T00:00:24.435Z,95258.44
2018-08-18T00:02:53.398Z,95257.21
2018-08-18T00:05:22.459Z,95253.81
2018-08-18T00:07:51.414Z,95258.36
2018-08-18T00:10:22.172Z,95257.45
2018-08-18T00:12:51.519Z,95257.20
2018-08-18T00:15:20.409Z,95256.79
2018-08-18T00:17:49.367Z,95258.23
2018-08-18T00:20:21.406Z,95267.34
2018-08-18T00:22:50.358Z,95267.63
2018-08-18T00:25:19.355Z,95259.28
2018-08-18T00:27:48.235Z,95265.16
2018-08-18T00:30:22.320Z,95263.58
2018-08-18T00:32:51.380Z,95269.89
2018-08-18T00:35:20.412Z,95275.02
2018-08-18T00:37:49.411Z,95271.88
2018-08-18T00:40:18.314Z,95272.40
2018-08-18T00:42:47.316Z,95271.00
2018-08-18T00:45:16.311Z,95267.36
2018-08-18T00:47:45.272Z,95253.70
2018-08-18T00:50:22.730Z,95256.12
2018-08-18T00:52:51.638Z,95257.45
2018-08-18T00:55:20.577Z,95252.44
2018-08-18T00:57:49.539Z,95249.16
2018-08-18T01:00:18.518Z,95254.28
2018-08-18T01:02:47.407Z,95263.46
2018-08-18T01:05:16.368Z,95259.63
2018-08-18T01:07:45.259Z,95264.41
2018-08-18T01:10:14.224Z,95263.09
2018-08-18T01:12:43.230Z,95256.76
2018-08-18T01:15:16.320Z,95254.25
2018-08-18T01:17:45.191Z,95266.84
2018-08-18T01:20:14.107Z,95261.22
2018-08-18T01:22:47.132Z,95264.71
2018-08-18T01:25:16.152Z,95261.17
2018-08-18T01:27:51.055Z,95262.50
2018-08-18T01:30:20.086Z,95255.32
2018-08-18T01:32:49.131Z,95260.73
2018-08-18T01:35:18.223Z,95263.34
2018-08-18T01:37:47.144Z,95263.34
2018-08-18T01:40:16.096Z,95260.36
2018-08-18T01:42:45.034Z,95258.16
2018-08-18T01:45:13.931Z,95253.25
2018-08-18T01:47:42.889Z,95252.98
2018-08-18T01:50:16.960Z,95260.97
2018-08-18T01:52:45.955Z,95280.43
2018-08-18T01:55:15.964Z,95280.03
2018-08-18T01:57:45.150Z,95264.64
2018-08-18T02:00:26.295Z,95263.83
2018-08-18T02:02:55.330Z,95264.45
2018-08-18T02:05:24.395Z,95262.18
2018-08-18T02:07:53.313Z,95259.55
2018-08-18T02:10:22.218Z,95267.61
2018-08-18T02:13:04.387Z,95254.37
2018-08-18T02:15:33.330Z,95267.42
2018-08-18T02:18:02.244Z,95264.85
2018-08-18T02:20:31.219Z,95265.88
2018-08-18T02:23:00.137Z,95261.12
2018-08-18T02:25:29.038Z,95264.77
2018-08-18T02:27:57.983Z,95258.47
2018-08-18T02:30:26.878Z,95256.52
2018-08-18T02:32:55.833Z,95257.27
2018-08-18T02:35:24.872Z,95259.50
2018-08-18T02:37:53.895Z,95261.95
2018-08-18T02:40:22.903Z,95258.89
2018-08-18T02:42:51.831Z,95253.59
2018-08-18T02:45:20.741Z,95244.92
2018-08-18T02:47:55.659Z,95252.27
2018-08-18T02:50:24.703Z,95258.91
2018-08-18T02:52:53.764Z,95248.00
2018-08-18T02:55:22.692Z,95255.94
2018-08-18T02:57:51.581Z,95258.68
2018-08-18T03:00:25.584Z,95261.54
2018-08-18T03:02:54.659Z,95260.33
2018-08-18T03:05:23.583Z,95269.70
2018-08-18T03:07:53.225Z,95271.53
2018-08-18T03:10:23.780Z,95274.78
2018-08-18T03:12:55.726Z,95271.83
2018-08-18T03:16:01.860Z,95276.72
2018-08-18T03:19:01.044Z,95274.78
2018-08-18T03:21:35.060Z,95285.06
2018-08-18T03:24:11.494Z,95296.66
2018-08-18T03:26:42.530Z,95297.17
2018-08-18T03:29:12.226Z,95282.43
2018-08-18T03:31:41.622Z,95296.06
2018-08-18T03:34:11.428Z,95297.98
2018-08-18T03:36:42.084Z,95307.64
2018-08-18T03:39:19.559Z,95308.79
2018-08-18T03:41:48.672Z,95313.57
2018-08-18T03:44:17.634Z,95316.30
2018-08-18T03:46:46.641Z,95321.59
2018-08-18T03:49:15.615Z,95321.09
2018-08-18T03:51:46.650Z,95327.22
2018-08-18T03:54:15.713Z,95326.89
2018-08-18T03:56:45.058Z,95328.13
2018-08-18T03:59:14.069Z,95333.11
2018-08-18T04:01:55.150Z,95332.20
2018-08-18T04:04:25.394Z,95336.57
2018-08-18T04:06:56.487Z,95339.25
2018-08-18T04:09:28.452Z,95337.62
2018-08-18T04:11:59.600Z,95338.02
2018-08-18T04:14:33.559Z,95330.91
2018-08-18T04:17:02.466Z,95333.16
2018-08-18T04:19:31.418Z,95331.83
2018-08-18T04:22:00.323Z,95336.52
2018-08-18T04:24:48.035Z,95331.41
2018-08-18T04:27:50.227Z,95331.02
2018-08-18T04:30:21.748Z,95331.52
2018-08-18T04:32:59.802Z,95335.78
2018-08-18T04:35:29.852Z,95346.08
2018-08-18T04:37:59.891Z,95333.66
2018-08-18T04:40:28.886Z,95330.41
2018-08-18T04:42:59.035Z,95327.13
2018-08-18T04:45:28.015Z,95327.23
2018-08-18T04:47:56.924Z,95333.31
2018-08-18T04:50:25.891Z,95337.08
2018-08-18T04:52:55.474Z,95330.23
2018-08-18T04:55:24.435Z,95329.52
2018-08-18T04:57:53.370Z,95340.72
2018-08-18T05:00:22.279Z,95343.91
2018-08-18T05:02:57.039Z,95348.53
2018-08-18T05:05:27.955Z,95346.97
2018-08-18T05:07:58.737Z,95343.32
2018-08-18T05:10:27.961Z,95353.61
2018-08-18T05:12:56.959Z,95352.28
2018-08-18T05:15:26.008Z,95351.95
2018-08-18T05:17:54.907Z,95363.89
2018-08-18T05:20:26.399Z,95363.39
2018-08-18T05:22:57.176Z,95369.11
2018-08-18T05:25:31.092Z,95375.94
2018-08-18T05:28:00.576Z,95380.40
2018-08-18T05:30:29.459Z,95386.42
2018-08-18T05:32:58.352Z,95377.05
2018-08-18T05:35:27.244Z,95380.38
2018-08-18T05:37:56.139Z,95371.46
2018-08-18T05:40:25.161Z,95375.53
2018-08-18T05:42:54.227Z,95372.84
2018-08-18T05:45:26.987Z,95375.36
2018-08-18T05:47:56.299Z,95381.52
2018-08-18T05:50:26.941Z,95389.00
2018-08-18T05:53:19.537Z,95380.84
2018-08-18T05:55:49.187Z,95376.25
2018-08-18T05:58:18.172Z,95378.11
2018-08-18T06:00:47.472Z,95375.79
2018-08-18T06:03:19.207Z,95384.24
2018-08-18T06:05:48.536Z,95382.47
2018-08-18T06:08:17.463Z,95380.86
2018-08-18T06:10:46.391Z,95374.66
2018-08-18T06:13:23.474Z,95385.89
2018-08-18T06:16:10.877Z,95379.25
2018-08-18T06:18:40.820Z,95389.76
2018-08-18T06:21:09.751Z,95382.53
2018-08-18T06:23:39.592Z,95375.02
2018-08-18T06:26:08.949Z,95372.04
2018-08-18T06:28:37.937Z,95377.97
2018-08-18T06:31:06.951Z,95369.86
2018-08-18T06:33:35.855Z,95367.41
2018-08-18T06:36:04.980Z,95372.34
2018-08-18T06:38:33.934Z,95372.38
2018-08-18T06:41:03.694Z,95373.23
2018-08-18T06:43:33.855Z,95374.33
2018-08-18T06:46:03.473Z,95372.70
2018-08-18T06:48:35.344Z,95374.56
2018-08-18T06:51:04.490Z,95373.53
2018-08-18T06:53:38.518Z,95371.45
2018-08-18T06:56:07.971Z,95379.51
2018-08-18T06:58:37.228Z,95376.78
2018-08-18T07:01:06.834Z,95373.00
2018-08-18T07:03:39.655Z,95376.56
2018-08-18T07:06:10.527Z,95374.34
2018-08-18T07:08:56.700Z,95371.48
2018-08-18T07:11:25.635Z,95376.95
2018-08-18T07:13:54.632Z,95372.66
2018-08-18T07:16:23.608Z,95374.91
2018-08-18T07:18:52.600Z,95377.02
2018-08-18T07:21:21.607Z,95379.29
2018-08-18T07:23:50.547Z,95377.30
2018-08-18T07:26:19.550Z,95380.58
2018-08-18T07:28:48.598Z,95385.19
2018-08-18T07:31:17.503Z,95388.76
2018-08-18T07:33:46.395Z,95389.43
2018-08-18T07:36:15.386Z,95382.69
2018-08-18T07:38:44.372Z,95379.09
2018-08-18T07:41:13.304Z,95382.64
2018-08-18T07:43:42.328Z,95389.47
2018-08-18T07:46:11.334Z,95385.97
2018-08-18T07:48:40.380Z,95387.73
2018-08-18T07:51:09.515Z,95386.40
2018-08-18T07:53:38.602Z,95388.63
2018-08-18T07:56:07.466Z,95388.80
2018-08-18T07:58:38.147Z,95385.64
2018-08-18T08:01:07.441Z,95392.53
2018-08-18T08:03:36.363Z,95390.42
2018-08-18T08:06:05.414Z,95388.47
2018-08-18T08:08:39.495Z,95390.45
2018-08-18T08:11:13.366Z,95395.09
2018-08-18T08:13:42.412Z,95390.48
2018-08-18T08:16:11.394Z,95394.75
2018-08-18T08:18:40.373Z,95390.88
2018-08-18T08:21:09.499Z,95396.42
2018-08-18T08:23:38.416Z,95387.88
2018-08-18T08:26:07.338Z,95387.34
2018-08-18T08:28:36.286Z,95385.92
2018-08-18T08:31:05.182Z,95385.75
2018-08-18T08:33:37.039Z,95388.52
2018-08-18T08:36:11.039Z,95389.14
2018-08-18T08:38:53.855Z,95387.45
2018-08-18T08:41:26.344Z,95385.09
2018-08-18T08:43:55.420Z,95382.11
2018-08-18T08:46:24.376Z,95379.72
2018-08-18T08:48:56.447Z,95382.30
2018-08-18T08:51:26.204Z,95375.19
2018-08-18T08:53:57.373Z,95384.09
2018-08-18T08:56:30.364Z,95376.04
2018-08-18T08:58:59.478Z,95371.95
2018-08-18T09:01:28.475Z,95381.03
2018-08-18T09:03:57.408Z,95390.03
2018-08-18T09:06:26.336Z,95383.07
2018-08-18T09:08:58.407Z,95381.39
2018-08-18T09:11:28.399Z,95372.56
2018-08-18T09:14:03.271Z,95381.00
2018-08-18T09:16:33.279Z,95380.84
2018-08-18T09:19:02.256Z,95384.71
2018-08-18T09:21:38.239Z,95377.02
2018-08-18T09:24:07.480Z,95371.14
2018-08-18T09:26:41.417Z,95372.38
2018-08-18T09:29:10.399Z,95368.83
2018-08-18T09:31:39.768Z,95368.00
2018-08-18T09:34:08.769Z,95367.30
2018-08-18T09:36:37.751Z,95371.78
2018-08-18T09:39:09.750Z,95364.26
2018-08-18T09:41:39.532Z,95364.62
2018-08-18T09:44:11.632Z,95364.14
2018-08-18T09:46:40.589Z,95372.10
2018-08-18T09:49:09.547Z,95364.50
2018-08-18T09:51:38.451Z,95355.15
2018-08-18T09:54:07.471Z,95356.75
2018-08-18T09:56:36.434Z,95358.56
2018-08-18T09:59:05.435Z,95372.33
2018-08-18T10:01:34.379Z,95364.45
2018-08-18T10:04:03.423Z,95365.33
2018-08-18T10:06:32.499Z,95359.02
2018-08-18T10:09:01.539Z,95355.99
2018-08-18T10:11:30.525Z,95354.93
2018-08-18T10:13:59.516Z,95353.72
2018-08-18T10:16:28.518Z,95351.85
2018-08-18T10:18:58.170Z,95352.41
2018-08-18T10:21:27.187Z,95340.41
2018-08-18T10:23:56.347Z,95344.66
2018-08-18T10:26:25.375Z,95358.64
2018-08-18T10:29:10.994Z,95341.84
2018-08-18T10:31:46.762Z,95341.17
2018-08-18T10:34:16.439Z,95339.16
2018-08-18T10:36:52.585Z,95337.16
2018-08-18T10:39:22.479Z,95348.83
2018-08-18T10:42:11.586Z,95332.67
2018-08-18T10:44:50.768Z,95337.56
2018-08-18T10:47:21.861Z,95336.78
2018-08-18T10:50:01.854Z,95338.12
2018-08-18T10:52:42.311Z,95332.69
2018-08-18T10:55:12.645Z,95337.71
2018-08-18T10:57:53.330Z,95331.59
2018-08-18T11:00:24.003Z,95331.02
2018-08-18T11:02:54.496Z,95326.00
2018-08-18T11:05:24.442Z,95334.15
2018-08-18T11:07:59.499Z,95320.63
2018-08-18T11:10:30.432Z,95325.11
2018-08-18T11:12:59.466Z,95336.58
2018-08-18T11:15:28.647Z,95330.55
2018-08-18T11:17:58.199Z,95324.91
2018-08-18T11:20:29.578Z,95319.03
2018-08-18T11:23:04.405Z,95320.70
2018-08-18T11:25:36.852Z,95322.38
2018-08-18T11:28:06.229Z,95320.03
2018-08-18T11:30:35.145Z,95323.05
2018-08-18T11:33:04.345Z,95319.67
2018-08-18T11:35:33.935Z,95313.34
2018-08-18T11:38:06.568Z,95304.23
2018-08-18T11:40:35.589Z,95321.84
2018-08-18T11:43:06.027Z,95317.84
2018-08-18T11:45:36.197Z,95301.50
2018-08-18T11:48:09.961Z,95314.14
2018-08-18T11:50:39.276Z,95307.06
2018-08-18T11:53:08.432Z,95293.67
2018-08-18T11:55:38.162Z,95301.16
2018-08-18T11:58:11.863Z,95304.81
2018-08-18T12:00:48.151Z,95291.05
2018-08-18T12:03:20.755Z,95293.73
2018-08-18T12:05:52.504Z,95288.69
2018-08-18T12:08:23.270Z,95293.51
2018-08-18T12:10:53.879Z,95285.14
2018-08-18T12:13:30.072Z,95275.23
2018-08-18T12:16:07.993Z,95286.28
2018-08-18T12:18:38.853Z,95279.38
2018-08-18T12:21:07.983Z,95269.29
2018-08-18T12:23:38.074Z,95274.72
2018-08-18T12:26:09.937Z,95273.20
2018-08-18T12:28:42.989Z,95270.53
2018-08-18T12:31:14.062Z,95280.72
2018-08-18T12:33:43.235Z,95289.55
2018-08-18T12:36:12.287Z,95275.45
2018-08-18T12:38:45.616Z,95284.95
2018-08-18T12:41:14.748Z,95268.28
2018-08-18T12:43:47.611Z,95266.14
2018-08-18T12:46:17.952Z,95278.89
2018-08-18T12:48:48.196Z,95258.84
2018-08-18T12:51:18.270Z,95267.52
2018-08-18T12:53:54.412Z,95247.20
2018-08-18T12:56:26.133Z,95275.89
2018-08-18T12:58:55.144Z,95258.50
2018-08-18T13:01:37.071Z,95260.61
2018-08-18T13:04:08.451Z,95254.92
2018-08-18T13:06:43.525Z,95260.29
2018-08-18T13:09:16.790Z,95254.22
2018-08-18T13:11:47.269Z,95256.32
2018-08-18T13:14:25.331Z,95253.80
2018-08-18T13:16:54.448Z,95247.64
2018-08-18T13:19:25.117Z,95257.69
2018-08-18T13:21:54.289Z,95243.70
2018-08-18T13:24:23.194Z,95247.45
2018-08-18T13:26:52.215Z,95240.21
2018-08-18T13:29:21.104Z,95237.30
2018-08-18T13:31:50.294Z,95255.23
2018-08-18T13:34:19.622Z,95248.33
2018-08-18T13:36:48.601Z,95250.48
2018-08-18T13:39:18.874Z,95240.48
2018-08-18T13:41:48.871Z,95257.42
2018-08-18T13:44:36.592Z,95259.83
2018-08-18T13:47:05.533Z,95245.00
2018-08-18T13:49:35.090Z,95244.69
2018-08-18T13:52:04.118Z,95254.42
2018-08-18T13:54:34.395Z,95247.03
2018-08-18T13:57:03.458Z,95230.67
2018-08-18T13:59:40.103Z,95234.20
2018-08-18T14:02:09.872Z,95228.53
2018-08-18T14:04:41.150Z,95230.64
2018-08-18T14:07:10.608Z,95232.55
2018-08-18T14:09:42.457Z,95234.73
2018-08-18T14:12:16.222Z,95234.16
2018-08-18T14:14:45.892Z,95244.86
2018-08-18T14:17:15.715Z,95227.88
2018-08-18T14:19:44.840Z,95224.97
2018-08-18T14:22:13.964Z,95235.50
2018-08-18T14:24:42.931Z,95222.92
2018-08-18T14:27:14.365Z,95221.31
2018-08-18T14:29:43.462Z,95219.67
2018-08-18T14:32:18.419Z,95232.85
2018-08-18T14:34:54.576Z,95247.64
2018-08-18T14:37:23.646Z,95225.34
2018-08-18T14:39:52.773Z,95231.52
2018-08-18T14:42:21.840Z,95234.16
2018-08-18T14:44:51.054Z,95237.91
2018-08-18T14:47:20.032Z,95235.77
2018-08-18T14:49:49.010Z,95229.06
2018-08-18T14:52:18.003Z,95226.65
2018-08-18T14:54:47.041Z,95241.33
2018-08-18T14:57:16.029Z,95235.47
2018-08-18T14:59:45.104Z,95225.23
2018-08-18T15:02:14.032Z,95218.77
2018-08-18T15:04:42.978Z,95225.27
2018-08-18T15:07:11.972Z,95223.43
2018-08-18T15:09:45.566Z,95228.22
2018-08-18T15:12:14.549Z,95226.41
2018-08-18T15:14:43.520Z,95228.48
2018-08-18T15:17:12.553Z,95221.55
2018-08-18T15:19:41.394Z,95227.22
2018-08-18T15:22:11.695Z,95228.76
2018-08-18T15:24:40.687Z,95234.36
2018-08-18T15:27:09.778Z,95225.73
2018-08-18T15:29:38.729Z,95226.12
2018-08-18T15:32:07.708Z,95223.13
2018-08-18T15:34:36.695Z,95228.80
2018-08-18T15:37:05.787Z,95229.87
2018-08-18T15:39:34.857Z,95223.09
2018-08-18T15:42:03.962Z,95236.48
2018-08-18T15:44:33.046Z,95232.45
2018-08-18T15:47:01.955Z,95234.88
2018-08-18T15:49:30.866Z,95233.22
2018-08-18T15:51:59.797Z,95234.83
2018-08-18T15:54:28.874Z,95241.00
2018-08-18T15:56:57.923Z,95246.84
2018-08-18T15:59:26.924Z,95247.33
2018-08-18T16:01:56.170Z,95238.48
2018-08-18T16:04:25.178Z,95247.38
2018-08-18T16:06:54.248Z,95250.05
2018-08-18T16:09:23.230Z,95250.02
2018-08-18T16:11:52.389Z,95247.64
2018-08-18T16:14:21.289Z,95251.92
2018-08-18T16:16:59.715Z,95250.59
2018-08-18T16:19:32.209Z,95248.14
2018-08-18T16:22:02.072Z,95248.92
2018-08-18T16:24:35.559Z,95262.43
2018-08-18T16:27:06.424Z,95263.36
2018-08-18T16:29:36.642Z,95260.41
2018-08-18T16:32:20.712Z,95268.29
2018-08-18T16:34:56.603Z,95273.32
2018-08-18T16:37:27.352Z,95279.12
2018-08-18T16:39:57.032Z,95278.83
2018-08-18T16:42:26.058Z,95286.28
2018-08-18T16:44:55.045Z,95288.17
2018-08-18T16:47:24.251Z,95288.38
2018-08-18T16:49:53.142Z,95291.90
2018-08-18T16:52:22.118Z,95287.09
2018-08-18T16:54:51.080Z,95287.77
2018-08-18T16:57:20.631Z,95282.81
2018-08-18T16:59:49.568Z,95294.10
2018-08-18T17:02:30.910Z,95288.82
2018-08-18T17:05:00.007Z,95294.25
2018-08-18T17:07:28.949Z,95301.27
2018-08-18T17:09:58.028Z,95302.34
2018-08-18T17:12:30.930Z,95307.84
2018-08-18T17:14:59.938Z,95297.41
2018-08-18T17:17:29.100Z,95306.91
2018-08-18T17:19:58.069Z,95305.58
2018-08-18T17:22:27.194Z,95307.51
2018-08-18T17:24:56.080Z,95307.25
2018-08-18T17:27:27.832Z,95315.65
2018-08-18T17:29:57.028Z,95317.23
2018-08-18T17:32:27.743Z,95313.22
2018-08-18T17:34:56.664Z,95322.17
2018-08-18T17:37:25.860Z,95325.53
2018-08-18T17:39:54.883Z,95325.50
2018-08-18T17:42:23.967Z,95320.98
2018-08-18T17:44:53.015Z,95326.70
2018-08-18T17:47:22.256Z,95327.33
2018-08-18T17:49:56.049Z,95328.94
2018-08-18T17:52:25.190Z,95332.48
2018-08-18T17:55:08.377Z,95337.24
2018-08-18T17:57:38.322Z,95345.34
2018-08-18T18:00:17.105Z,95346.42
2018-08-18T18:02:51.970Z,95350.44
2018-08-18T18:05:22.819Z,95350.42
2018-08-18T18:07:55.890Z,95352.37
2018-08-18T18:10:27.168Z,95357.72
2018-08-18T18:12:56.307Z,95363.61
2018-08-18T18:15:37.024Z,95361.20
2018-08-18T18:18:07.152Z,95367.55
2018-08-18T18:20:36.134Z,95361.12
2018-08-18T18:23:06.386Z,95363.58
2018-08-18T18:25:35.316Z,95370.30
2018-08-18T18:28:04.396Z,95372.91
2018-08-18T18:30:33.345Z,95375.28
2018-08-18T18:33:02.435Z,95376.09
2018-08-18T18:35:31.414Z,95384.34
2018-08-18T18:38:02.894Z,95389.65
2018-08-18T18:40:35.063Z,95377.83
2018-08-18T18:43:04.409Z,95373.73
2018-08-18T18:45:33.417Z,95381.48
2018-08-18T18:48:02.407Z,95373.97
2018-08-18T18:50:31.359Z,95378.41
2018-08-18T18:53:00.305Z,95382.16
2018-08-18T18:55:29.344Z,95383.18
2018-08-18T18:58:09.505Z,95387.83
2018-08-18T19:00:39.594Z,95382.78
2018-08-18T19:03:10.553Z,95378.47
2018-08-18T19:05:39.583Z,95375.23
2018-08-18T19:08:16.458Z,95374.69
2018-08-18T19:10:45.520Z,95378.08
2018-08-18T19:13:14.541Z,95384.49
2018-08-18T19:15:43.684Z,95387.25
2018-08-18T19:18:13.687Z,95390.67
2018-08-18T19:20:42.872Z,95392.82
2018-08-18T19:23:16.577Z,95387.70
2018-08-18T19:25:47.875Z,95389.23
2018-08-18T19:28:19.692Z,95392.38
2018-08-18T19:30:48.596Z,95393.16
2018-08-18T19:33:18.144Z,95393.94
2018-08-18T19:35:48.283Z,95399.75
2018-08-18T19:38:18.228Z,95388.53
2018-08-18T19:40:48.399Z,95383.98
2018-08-18T19:43:21.199Z,95387.63
2018-08-18T19:45:50.486Z,95389.97
2018-08-18T19:48:21.439Z,95393.14
2018-08-18T19:50:57.131Z,95401.62
2018-08-18T19:53:29.136Z,95399.43
2018-08-18T19:55:59.311Z,95396.73
2018-08-18T19:58:28.965Z,95396.95
2018-08-18T20:00:58.035Z,95404.23
2018-08-18T20:03:27.284Z,95404.40
2018-08-18T20:05:56.398Z,95406.22
2018-08-18T20:08:26.854Z,95404.87
2018-08-18T20:10:57.643Z,95412.61
2018-08-18T20:13:28.271Z,95408.08
2018-08-18T20:15:59.709Z,95406.55
2018-08-18T20:18:28.879Z,95409.01
2018-08-18T20:20:58.726Z,95414.91
2018-08-18T20:23:27.881Z,95418.60
2018-08-18T20:25:57.246Z,95420.11
2018-08-18T20:28:26.132Z,95421.20
2018-08-18T20:30:55.441Z,95429.83
2018-08-18T20:33:24.516Z,95429.47
2018-08-18T20:35:53.507Z,95424.56
2018-08-18T20:38:22.823Z,95420.67
2018-08-18T20:40:51.831Z,95418.58
2018-08-18T20:43:21.006Z,95421.19
2018-08-18T20:45:50.656Z,95425.80
2018-08-18T20:48:21.752Z,95424.25
2018-08-18T20:50:51.005Z,95427.63
2018-08-18T20:53:20.112Z,95429.31
2018-08-18T20:55:56.502Z,95437.89
2018-08-18T20:58:25.834Z,95441.86
2018-08-18T21:00:54.819Z,95441.02
2018-08-18T21:03:57.414Z,95444.46
2018-08-18T21:06:26.347Z,95440.98
2018-08-18T21:08:55.506Z,95440.31
2018-08-18T21:11:24.797Z,95432.72
2018-08-18T21:13:53.820Z,95438.94
2018-08-18T21:16:24.114Z,95446.84
2018-08-18T21:18:53.117Z,95447.25
2018-08-18T21:21:37.631Z,95443.36
2018-08-18T21:24:06.713Z,95449.44
2018-08-18T21:26:35.864Z,95450.05
2018-08-18T21:29:04.945Z,95450.66
2018-08-18T21:31:37.852Z,95448.30
2018-08-18T21:34:08.008Z,95447.66
2018-08-18T21:36:37.235Z,95453.53
2018-08-18T21:39:08.646Z,95455.16
2018-08-18T21:41:39.031Z,95452.48
2018-08-18T21:44:10.022Z,95455.20
2018-08-18T21:46:39.629Z,95452.81
2018-08-18T21:49:09.098Z,95452.24
2018-08-18T21:51:38.236Z,95456.08
2018-08-18T21:54:07.324Z,95451.95
2018-08-18T21:56:39.650Z,95458.67
2018-08-18T21:59:10.356Z,95455.55
2018-08-18T22:01:39.435Z,95462.37
2018-08-18T22:04:09.216Z,95461.39
2018-08-18T22:06:38.207Z,95465.20
2018-08-18T22:09:19.289Z,95463.70
2018-08-18T22:11:48.601Z,95467.02
2018-08-18T22:14:18.561Z,95459.47
2018-08-18T22:16:52.683Z,95464.53
2018-08-18T22:19:22.510Z,95464.42
2018-08-18T22:21:51.537Z,95463.16
2018-08-18T22:24:20.675Z,95459.77
2018-08-18T22:26:49.724Z,95456.13
2018-08-18T22:29:20.127Z,95456.94
2018-08-18T22:31:49.161Z,95457.75
2018-08-18T22:34:18.113Z,95458.39
2018-08-18T22:36:47.115Z,95453.09
2018-08-18T22:39:16.163Z,95453.33
2018-08-18T22:41:45.126Z,95454.27
2018-08-18T22:44:14.104Z,95460.38
2018-08-18T22:46:43.043Z,95456.80
2018-08-18T22:49:12.092Z,95456.48
2018-08-18T22:51:41.106Z,95459.08
2018-08-18T22:54:10.142Z,95457.34
2018-08-18T22:56:39.375Z,95455.23
2018-08-18T22:59:09.153Z,95455.52
2018-08-18T23:01:38.984Z,95456.00
2018-08-18T23:04:23.508Z,95449.17
2018-08-18T23:06:52.503Z,95445.09
2018-08-18T23:09:21.456Z,95443.03
2018-08-18T23:11:50.428Z,95449.46
2018-08-18T23:14:19.371Z,95457.34
2018-08-18T23:16:48.444Z,95455.08
2018-08-18T23:19:17.359Z,95450.52
2018-08-18T23:21:46.401Z,95456.53
2018-08-18T23:24:28.458Z,95450.73
2018-08-18T23:26:57.485Z,95451.00
2018-08-18T23:29:26.503Z,95458.00
2018-08-18T23:31:55.409Z,95461.56
2018-08-18T23:34:24.666Z,95455.75
2018-08-18T23:36:54.175Z,95458.55
2018-08-18T23:39:23.413Z,95460.89
2018-08-18T23:42:02.081Z,95465.34
2018-08-18T23:44:31.082Z,95465.22
2018-08-18T23:46:59.983Z,95457.11
2018-08-18T23:49:29.030Z,95456.67
2018-08-18T23:51:58.244Z,95457.89
2018-08-18T23:54:27.159Z,95457.80
2018-08-18T23:56:56.274Z,95455.43
2018-08-18T23:59:25.296Z,95457.72
